createdAt,value
2018-07-10T00:00:58.437Z,21.00
2018-07-10T00:03:38.446Z,20.90
2018-07-10T00:06:32.399Z,20.90
2018-07-10T00:09:14.907Z,20.90
2018-07-10T00:11:44.270Z,20.90
2018-07-10T00:14:13.635Z,20.90
2018-07-10T00:16:42.932Z,20.90
2018-07-10T00:19:12.339Z,20.80
2018-07-10T00:21:41.740Z,20.70
2018-07-10T00:24:11.236Z,20.80
2018-07-10T00:26:40.700Z,20.90
2018-07-10T00:29:09.963Z,20.90
2018-07-10T00:31:39.363Z,20.90
2018-07-10T00:34:08.762Z,20.70
2018-07-10T00:36:37.978Z,20.80
2018-07-10T00:39:09.334Z,20.70
2018-07-10T00:41:39.764Z,20.70
2018-07-10T00:44:09.265Z,20.80
2018-07-10T00:46:40.004Z,20.80
2018-07-10T00:49:09.141Z,20.70
2018-07-10T00:51:39.661Z,20.70
2018-07-10T00:54:09.047Z,20.70
2018-07-10T00:56:38.502Z,20.70
2018-07-10T00:59:07.991Z,20.70
2018-07-10T01:01:37.284Z,20.70
2018-07-10T01:04:06.514Z,20.60
2018-07-10T01:06:35.706Z,20.50
2018-07-10T01:09:05.083Z,20.50
2018-07-10T01:11:34.198Z,20.60
2018-07-10T01:14:03.327Z,20.60
2018-07-10T01:16:36.125Z,20.60
2018-07-10T01:19:11.486Z,20.60
2018-07-10T01:21:41.606Z,20.60
2018-07-10T01:24:10.761Z,20.60
2018-07-10T01:26:40.994Z,20.60
2018-07-10T01:29:20.683Z,20.50
2018-07-10T01:31:56.510Z,20.60
2018-07-10T01:34:25.690Z,20.60
2018-07-10T01:36:55.204Z,20.50
2018-07-10T01:39:24.336Z,20.50
2018-07-10T01:41:53.466Z,20.50
2018-07-10T01:44:22.618Z,20.60
2018-07-10T01:46:51.706Z,20.50
2018-07-10T01:49:20.841Z,20.50
2018-07-10T01:51:50.053Z,20.50
2018-07-10T01:54:19.185Z,20.50
2018-07-10T01:56:48.303Z,20.50
2018-07-10T01:59:17.610Z,20.40
2018-07-10T02:01:46.800Z,20.40
2018-07-10T02:04:16.046Z,20.40
2018-07-10T02:06:45.426Z,20.40
2018-07-10T02:09:14.727Z,20.40
2018-07-10T02:11:44.118Z,20.40
2018-07-10T02:14:13.468Z,20.40
2018-07-10T02:16:43.035Z,20.40
2018-07-10T02:19:12.726Z,20.30
2018-07-10T02:21:42.134Z,20.30
2018-07-10T02:24:11.591Z,20.30
2018-07-10T02:26:41.379Z,20.20
2018-07-10T02:29:10.753Z,20.20
2018-07-10T02:31:40.190Z,20.20
2018-07-10T02:34:09.693Z,20.20
2018-07-10T02:36:39.123Z,20.20
2018-07-10T02:39:09.033Z,20.20
2018-07-10T02:41:38.407Z,20.20
2018-07-10T02:44:07.799Z,20.10
2018-07-10T02:46:38.444Z,20.10
2018-07-10T02:49:18.685Z,20.10
2018-07-10T02:51:58.110Z,20.10
2018-07-10T02:54:29.211Z,20.10
2018-07-10T02:56:58.972Z,20.10
2018-07-10T02:59:37.121Z,20.10
2018-07-10T03:02:08.311Z,20.10
2018-07-10T03:04:39.863Z,20.10
2018-07-10T03:07:10.537Z,20.10
2018-07-10T03:09:39.890Z,20.20
2018-07-10T03:12:09.274Z,20.10
2018-07-10T03:14:38.614Z,20.10
2018-07-10T03:17:07.825Z,20.00
2018-07-10T03:19:37.734Z,19.90
2018-07-10T03:22:06.990Z,19.80
2018-07-10T03:24:36.170Z,19.80
2018-07-10T03:27:05.339Z,19.90
2018-07-10T03:29:34.436Z,19.80
2018-07-10T03:32:03.628Z,19.90
2018-07-10T03:34:32.822Z,19.80
2018-07-10T03:37:02.026Z,19.90
2018-07-10T03:39:31.174Z,19.90
2018-07-10T03:42:00.440Z,19.90
2018-07-10T03:44:30.663Z,19.80
2018-07-10T03:47:00.231Z,19.80
2018-07-10T03:49:29.962Z,19.60
2018-07-10T03:51:59.461Z,19.40
2018-07-10T03:54:28.915Z,19.40
2018-07-10T03:56:58.377Z,19.30
2018-07-10T03:59:28.380Z,19.30
2018-07-10T04:01:57.766Z,19.40
2018-07-10T04:04:27.203Z,19.40
2018-07-10T04:06:56.595Z,19.40
2018-07-10T04:09:26.408Z,19.30
2018-07-10T04:11:55.941Z,19.10
2018-07-10T04:14:25.459Z,19.00
2018-07-10T04:16:54.807Z,19.00
2018-07-10T04:19:24.581Z,19.00
2018-07-10T04:21:56.444Z,19.00
2018-07-10T04:24:26.495Z,19.00
2018-07-10T04:27:32.972Z,18.90
2018-07-10T04:30:13.214Z,18.80
2018-07-10T04:32:43.279Z,18.70
2018-07-10T04:35:16.143Z,18.40
2018-07-10T04:37:48.014Z,18.20
2018-07-10T04:40:18.442Z,18.10
2018-07-10T04:42:52.520Z,18.10
2018-07-10T04:45:22.264Z,18.10
2018-07-10T04:47:55.566Z,18.10
2018-07-10T04:50:32.981Z,18.00
2018-07-10T04:53:35.192Z,17.90
2018-07-10T04:56:05.154Z,18.00
2018-07-10T04:58:35.324Z,18.00
2018-07-10T05:01:05.124Z,18.00
2018-07-10T05:03:34.608Z,18.10
2018-07-10T05:06:06.654Z,18.20
2018-07-10T05:08:36.342Z,18.20
2018-07-10T05:11:05.769Z,18.30
2018-07-10T05:13:35.947Z,18.30
2018-07-10T05:16:06.502Z,18.30
2018-07-10T05:18:36.520Z,18.30
2018-07-10T05:21:08.860Z,18.30
2018-07-10T05:23:38.303Z,18.30
2018-07-10T05:26:07.891Z,18.30
2018-07-10T05:28:37.347Z,18.10
2018-07-10T05:31:07.185Z,18.00
2018-07-10T05:33:36.647Z,18.00
2018-07-10T05:36:06.636Z,17.90
2018-07-10T05:38:39.168Z,18.00
2018-07-10T05:41:09.318Z,18.00
2018-07-10T05:43:46.932Z,18.10
2018-07-10T05:46:17.020Z,17.90
2018-07-10T05:49:05.182Z,17.90
2018-07-10T05:51:46.156Z,18.00
2018-07-10T05:54:16.108Z,17.90
2018-07-10T05:56:45.595Z,17.90
2018-07-10T05:59:15.003Z,17.80
2018-07-10T06:01:44.417Z,17.90
2018-07-10T06:04:16.429Z,17.80
2018-07-10T06:06:46.082Z,17.80
2018-07-10T06:09:16.535Z,17.70
2018-07-10T06:11:46.007Z,17.70
2018-07-10T06:14:15.322Z,17.70
2018-07-10T06:16:44.519Z,17.70
2018-07-10T06:19:13.990Z,17.60
2018-07-10T06:21:48.449Z,17.60
2018-07-10T06:24:23.616Z,17.50
2018-07-10T06:26:58.969Z,17.50
2018-07-10T06:29:34.420Z,17.40
2018-07-10T06:32:04.275Z,17.40
2018-07-10T06:34:37.116Z,17.30
2018-07-10T06:37:09.279Z,17.20
2018-07-10T06:39:38.954Z,17.20
2018-07-10T06:42:11.982Z,17.30
2018-07-10T06:44:41.707Z,17.40
2018-07-10T06:47:29.560Z,17.40
2018-07-10T06:50:00.480Z,17.50
2018-07-10T06:52:29.913Z,17.40
2018-07-10T06:55:07.484Z,17.40
2018-07-10T06:57:40.027Z,17.40
2018-07-10T07:00:10.843Z,17.50
2018-07-10T07:02:40.827Z,17.60
2018-07-10T07:05:10.392Z,17.70
2018-07-10T07:07:40.642Z,17.90
2018-07-10T07:10:11.582Z,17.90
2018-07-10T07:12:41.578Z,17.90
2018-07-10T07:15:12.796Z,17.90
2018-07-10T07:17:46.707Z,18.00
2018-07-10T07:20:16.167Z,17.90
2018-07-10T07:22:46.089Z,18.10
2018-07-10T07:25:15.454Z,18.10
2018-07-10T07:27:44.911Z,18.20
2018-07-10T07:30:14.351Z,18.20
2018-07-10T07:32:43.779Z,18.20
2018-07-10T07:35:13.047Z,18.10
2018-07-10T07:37:42.717Z,18.10
2018-07-10T07:40:12.696Z,18.20
2018-07-10T07:42:42.735Z,18.30
2018-07-10T07:45:12.224Z,18.30
2018-07-10T07:47:41.580Z,18.50
2018-07-10T07:50:10.959Z,18.50
2018-07-10T07:52:40.462Z,18.50
2018-07-10T07:55:09.755Z,18.60
2018-07-10T07:57:39.046Z,18.70
2018-07-10T08:00:08.123Z,18.70
2018-07-10T08:02:37.338Z,18.70
2018-07-10T08:05:06.419Z,18.80
2018-07-10T08:07:35.509Z,18.80
2018-07-10T08:10:04.699Z,18.80
2018-07-10T08:12:33.894Z,18.80
2018-07-10T08:15:03.758Z,18.90
2018-07-10T08:17:35.866Z,19.00
2018-07-10T08:20:06.125Z,19.10
2018-07-10T08:22:35.330Z,19.20
2018-07-10T08:25:06.032Z,19.50
2018-07-10T08:27:37.826Z,19.60
2018-07-10T08:30:07.623Z,19.90
2018-07-10T08:32:38.004Z,20.00
2018-07-10T08:35:07.491Z,19.90
2018-07-10T08:37:36.673Z,20.00
2018-07-10T08:40:05.894Z,20.20
2018-07-10T08:42:35.321Z,20.40
2018-07-10T08:45:05.030Z,20.60
2018-07-10T08:47:34.838Z,20.80
2018-07-10T08:50:04.057Z,20.90
2018-07-10T08:52:33.293Z,20.90
2018-07-10T08:55:02.406Z,20.90
2018-07-10T08:57:31.554Z,21.10
2018-07-10T09:00:00.806Z,21.20
2018-07-10T09:02:30.013Z,21.70
2018-07-10T09:04:59.156Z,22.20
2018-07-10T09:07:28.332Z,22.40
2018-07-10T09:09:57.514Z,22.70
2018-07-10T09:12:26.624Z,23.00
2018-07-10T09:17:27.490Z,22.80
2018-07-10T09:19:57.913Z,22.80
2018-07-10T09:22:27.135Z,22.90
2018-07-10T09:24:57.870Z,23.00
2018-07-10T09:27:27.099Z,22.90
2018-07-10T09:29:56.438Z,22.90
2018-07-10T09:32:31.054Z,22.80
2018-07-10T09:35:00.246Z,23.00
2018-07-10T09:37:36.330Z,23.10
2018-07-10T09:40:11.022Z,23.10
2018-07-10T09:42:47.782Z,23.00
2018-07-10T09:45:17.013Z,22.80
2018-07-10T09:47:46.283Z,22.60
2018-07-10T09:50:15.521Z,23.20
2018-07-10T09:52:44.626Z,23.00
2018-07-10T09:55:13.784Z,22.80
2018-07-10T09:57:44.021Z,22.30
2018-07-10T10:00:13.515Z,22.50
2018-07-10T10:02:42.903Z,22.50
2018-07-10T10:05:12.327Z,22.50
2018-07-10T10:07:41.759Z,22.50
2018-07-10T10:10:11.035Z,22.30
2018-07-10T10:12:40.431Z,22.30
2018-07-10T10:15:09.763Z,22.20
2018-07-10T10:17:39.316Z,22.20
2018-07-10T10:20:08.771Z,22.30
2018-07-10T10:22:38.904Z,22.10
2018-07-10T10:25:08.293Z,22.10
2018-07-10T10:27:37.783Z,21.90
2018-07-10T10:30:07.287Z,22.20
2018-07-10T10:32:36.692Z,22.20
2018-07-10T10:35:06.091Z,22.00
2018-07-10T10:37:35.622Z,22.40
2018-07-10T10:40:05.043Z,23.10
2018-07-10T10:42:34.564Z,23.60
2018-07-10T10:45:04.064Z,23.70
2018-07-10T10:47:34.797Z,23.50
2018-07-10T10:50:04.293Z,23.70
2018-07-10T10:52:33.821Z,23.80
2018-07-10T10:55:03.327Z,24.30
2018-07-10T10:57:37.612Z,24.70
2018-07-10T11:00:07.413Z,24.90
2018-07-10T11:02:37.042Z,24.90
2018-07-10T11:05:06.480Z,24.50
2018-07-10T11:07:38.628Z,24.90
2018-07-10T11:10:08.221Z,25.20
2018-07-10T11:12:37.773Z,25.80
2018-07-10T11:15:07.206Z,26.20
2018-07-10T11:18:49.311Z,26.20
2018-07-10T11:21:39.458Z,26.30
2018-07-10T11:24:08.838Z,27.10
2018-07-10T11:26:40.397Z,27.80
2018-07-10T11:29:09.869Z,27.70
2018-07-10T11:31:39.583Z,27.60
2018-07-10T11:34:09.123Z,28.10
2018-07-10T11:36:38.658Z,28.80
2018-07-10T11:39:10.201Z,28.90
2018-07-10T11:41:43.860Z,28.50
2018-07-10T11:44:13.292Z,27.40
2018-07-10T11:46:42.620Z,27.10
2018-07-10T11:49:11.887Z,27.30
2018-07-10T11:51:41.266Z,28.30
2018-07-10T11:54:10.928Z,28.80
2018-07-10T11:56:40.402Z,29.00
2018-07-10T11:59:09.868Z,28.80
2018-07-10T12:01:39.424Z,29.30
2018-07-10T12:04:08.936Z,29.70
2018-07-10T12:06:49.152Z,29.30
2018-07-10T12:09:18.476Z,28.60
2018-07-10T12:11:47.939Z,28.10
2018-07-10T12:14:17.187Z,28.10
2018-07-10T12:16:46.387Z,28.20
2018-07-10T12:19:17.179Z,28.90
2018-07-10T12:21:46.738Z,28.80
2018-07-10T12:24:16.216Z,29.10
2018-07-10T12:26:45.661Z,29.00
2018-07-10T12:29:15.154Z,29.00
2018-07-10T12:31:45.023Z,28.50
2018-07-10T12:34:14.400Z,28.30
2018-07-10T12:36:43.898Z,28.50
2018-07-10T12:39:13.091Z,27.20
2018-07-10T12:41:42.457Z,27.40
2018-07-10T12:44:11.835Z,28.20
2018-07-10T12:46:41.123Z,28.40
2018-07-10T12:49:10.511Z,28.20
2018-07-10T12:51:40.008Z,27.90
2018-07-10T12:54:09.395Z,27.90
2018-07-10T12:56:38.805Z,28.20
2018-07-10T12:59:08.220Z,28.20
2018-07-10T13:01:37.653Z,27.90
2018-07-10T13:04:07.118Z,27.80
2018-07-10T13:06:36.408Z,27.60
2018-07-10T13:11:34.616Z,27.30
2018-07-10T13:14:04.097Z,27.20
2018-07-10T13:16:33.521Z,27.50
2018-07-10T13:19:03.034Z,27.60
2018-07-10T13:21:32.367Z,27.50
2018-07-10T13:24:01.791Z,27.30
2018-07-10T13:26:31.299Z,27.10
2018-07-10T13:29:00.819Z,26.70
2018-07-10T13:31:30.207Z,27.00
2018-07-10T13:33:59.779Z,26.60
2018-07-10T13:36:29.254Z,26.80
2018-07-10T13:38:58.549Z,26.80
2018-07-10T13:41:27.785Z,26.70
2018-07-10T13:43:57.056Z,26.80
2018-07-10T13:46:26.255Z,26.30
2018-07-10T13:48:55.369Z,26.50
2018-07-10T13:51:24.521Z,25.90
2018-07-10T13:53:53.749Z,25.70
2018-07-10T13:56:23.035Z,25.80
2018-07-10T13:58:52.503Z,25.90
2018-07-10T14:01:21.962Z,25.70
2018-07-10T14:03:51.438Z,25.70
2018-07-10T14:06:20.796Z,25.30
2018-07-10T14:08:50.291Z,25.30
2018-07-10T14:11:19.699Z,25.10
2018-07-10T14:13:49.154Z,25.40
2018-07-10T14:16:18.616Z,25.10
2018-07-10T14:18:52.427Z,25.00
2018-07-10T14:21:22.523Z,24.90
2018-07-10T14:23:51.982Z,24.60
2018-07-10T14:26:21.416Z,24.50
2018-07-10T14:28:50.972Z,24.40
2018-07-10T14:31:20.399Z,24.30
2018-07-10T14:33:49.825Z,24.40
2018-07-10T14:36:19.229Z,24.40
2018-07-10T14:38:48.761Z,24.40
2018-07-10T14:41:18.180Z,24.30
2018-07-10T14:43:48.715Z,24.00
2018-07-10T14:46:24.111Z,24.40
2018-07-10T14:48:57.818Z,24.50
2018-07-10T14:51:41.476Z,24.70
2018-07-10T14:54:11.409Z,24.70
2018-07-10T14:56:42.466Z,24.30
2018-07-10T14:59:12.386Z,24.00
2018-07-10T15:01:42.040Z,24.00
2018-07-10T15:04:11.422Z,24.10
2018-07-10T15:06:40.815Z,24.20
2018-07-10T15:09:10.616Z,23.90
2018-07-10T15:11:41.617Z,23.90
2018-07-10T15:14:11.958Z,23.90
2018-07-10T15:16:46.564Z,23.90
2018-07-10T15:19:16.695Z,24.00
2018-07-10T15:21:46.431Z,24.00
2018-07-10T15:24:15.761Z,23.90
2018-07-10T15:26:45.111Z,23.50
2018-07-10T15:29:18.596Z,23.30
2018-07-10T15:31:48.085Z,23.00
2018-07-10T15:34:17.839Z,23.00
2018-07-10T15:36:47.264Z,23.10
2018-07-10T15:39:16.730Z,23.10
2018-07-10T15:41:46.210Z,23.00
2018-07-10T15:44:15.619Z,23.00
2018-07-10T15:46:44.997Z,22.50
2018-07-10T15:49:14.374Z,22.60
2018-07-10T15:51:44.034Z,22.50
2018-07-10T15:54:13.443Z,22.40
2018-07-10T15:56:42.774Z,22.40
2018-07-10T15:59:12.320Z,22.30
2018-07-10T16:01:41.683Z,22.30
2018-07-10T16:04:11.124Z,22.30
2018-07-10T16:06:40.503Z,21.90
2018-07-10T16:09:17.910Z,21.60
2018-07-10T16:11:50.503Z,21.70
2018-07-10T16:14:20.003Z,21.80
2018-07-10T16:16:49.438Z,21.80
2018-07-10T16:19:29.397Z,21.90
2018-07-10T16:22:05.194Z,21.90
2018-07-10T16:24:38.871Z,21.80
2018-07-10T16:27:08.315Z,21.80
2018-07-10T16:29:37.767Z,21.80
2018-07-10T16:32:08.674Z,21.90
2018-07-10T16:34:38.112Z,21.50
2018-07-10T16:37:07.490Z,21.50
2018-07-10T16:39:36.960Z,21.60
2018-07-10T16:42:11.690Z,21.60
2018-07-10T16:44:43.090Z,21.50
2018-07-10T16:47:19.035Z,21.50
2018-07-10T16:49:48.472Z,21.40
2018-07-10T16:52:31.164Z,21.50
2018-07-10T16:55:00.599Z,21.40
2018-07-10T16:57:31.068Z,21.40
2018-07-10T17:00:00.759Z,21.40
2018-07-10T17:02:31.859Z,21.30
2018-07-10T17:05:01.326Z,21.30
2018-07-10T17:07:30.768Z,21.10
2018-07-10T17:10:00.347Z,21.10
2018-07-10T17:12:29.775Z,21.00
2018-07-10T17:15:01.861Z,21.10
2018-07-10T17:17:31.646Z,21.00
2018-07-10T17:20:01.176Z,21.10
2018-07-10T17:22:30.645Z,21.20
2018-07-10T17:25:00.050Z,21.20
2018-07-10T17:27:35.652Z,21.10
2018-07-10T17:30:06.141Z,21.10
2018-07-10T17:32:36.815Z,21.30
2018-07-10T17:35:12.843Z,21.30
2018-07-10T17:40:15.128Z,21.40
2018-07-10T17:45:17.399Z,21.60
2018-07-10T17:47:46.839Z,21.70
2018-07-10T17:50:16.368Z,21.70
2018-07-10T17:52:45.768Z,21.60
2018-07-10T17:55:15.292Z,21.60
2018-07-10T17:57:44.969Z,21.50
2018-07-10T18:00:14.286Z,21.50
2018-07-10T18:02:43.520Z,21.60
2018-07-10T18:05:13.047Z,21.60
2018-07-10T18:07:42.459Z,21.50
2018-07-10T18:10:11.934Z,21.60
2018-07-10T18:12:41.532Z,21.50
2018-07-10T18:15:10.939Z,21.50
2018-07-10T18:17:44.790Z,21.50
2018-07-10T18:20:14.295Z,21.40
2018-07-10T18:22:43.631Z,21.20
2018-07-10T18:25:13.055Z,21.20
2018-07-10T18:27:42.524Z,21.10
2018-07-10T18:30:12.011Z,20.90
2018-07-10T18:32:41.384Z,21.00
2018-07-10T18:35:10.823Z,21.00
2018-07-10T18:37:40.223Z,20.80
2018-07-10T18:40:09.707Z,20.80
2018-07-10T18:42:39.016Z,20.70
2018-07-10T18:45:08.479Z,20.70
2018-07-10T18:47:37.878Z,20.70
2018-07-10T18:50:07.312Z,20.70
2018-07-10T18:52:36.744Z,20.70
2018-07-10T18:55:06.227Z,20.60
2018-07-10T18:57:50.757Z,20.40
2018-07-10T19:00:27.469Z,20.00
2018-07-10T19:05:51.701Z,19.60
2018-07-10T19:08:22.522Z,19.40
2018-07-10T19:10:52.032Z,19.30
2018-07-10T19:13:21.489Z,19.50
2018-07-10T19:15:51.788Z,19.50
2018-07-10T19:18:21.536Z,19.60
2018-07-10T19:21:02.611Z,19.50
2018-07-10T19:26:04.362Z,19.30
2018-07-10T19:28:34.494Z,19.30
2018-07-10T19:31:11.251Z,19.40
2018-07-10T19:33:43.967Z,19.20
2018-07-10T19:36:13.479Z,19.10
2018-07-10T19:38:42.815Z,19.00
2018-07-10T19:41:12.274Z,18.90
2018-07-10T19:43:41.793Z,18.90
2018-07-10T19:46:12.107Z,18.90
2018-07-10T19:48:44.364Z,18.50
2018-07-10T19:51:13.873Z,18.40
2018-07-10T19:53:44.387Z,18.30
2018-07-10T19:56:13.991Z,18.40
2018-07-10T19:58:45.477Z,18.40
2018-07-10T20:01:53.851Z,18.50
2018-07-10T20:04:30.731Z,18.50
2018-07-10T20:07:12.061Z,18.40
2018-07-10T20:10:05.723Z,18.40
2018-07-10T20:12:40.370Z,18.40
2018-07-10T20:15:19.558Z,18.40
2018-07-10T20:18:04.343Z,18.20
2018-07-10T20:20:35.723Z,18.00
2018-07-10T20:24:19.558Z,18.00
2018-07-10T20:26:59.882Z,18.10
2018-07-10T20:31:43.043Z,18.10
2018-07-10T20:36:52.954Z,18.00
2018-07-10T20:39:26.787Z,17.80
2018-07-10T20:41:56.272Z,17.80
2018-07-10T20:44:25.824Z,17.70
2018-07-10T20:47:03.188Z,17.70
2018-07-10T20:50:15.871Z,17.40
2018-07-10T20:52:53.401Z,16.70
2018-07-10T20:55:24.859Z,16.50
2018-07-10T20:58:00.358Z,16.60
2018-07-10T21:00:36.162Z,16.70
2018-07-10T21:04:13.670Z,16.60
2018-07-10T21:07:04.602Z,16.10
2018-07-10T21:10:59.555Z,16.10
2018-07-10T21:13:51.444Z,15.90
2018-07-10T21:16:28.876Z,15.70
2018-07-10T21:19:08.084Z,15.80
2018-07-10T21:21:49.032Z,15.90
2018-07-10T21:24:28.353Z,16.00
2018-07-10T21:27:05.685Z,16.00
2018-07-10T21:30:56.763Z,16.00
2018-07-10T21:33:38.982Z,15.90
2018-07-10T21:36:29.118Z,15.90
2018-07-10T21:39:07.399Z,15.80
2018-07-10T21:41:47.591Z,15.80
2018-07-10T21:46:29.760Z,15.70
2018-07-10T21:49:07.158Z,15.60
2018-07-10T21:51:36.619Z,15.60
2018-07-10T21:54:06.285Z,15.50
2018-07-10T21:56:35.870Z,15.50
2018-07-10T21:59:05.572Z,15.50
2018-07-10T22:01:46.947Z,15.60
2018-07-10T22:04:19.469Z,15.50
2018-07-10T22:06:51.012Z,15.50
2018-07-10T22:09:20.603Z,15.50
2018-07-10T22:11:50.225Z,15.50
2018-07-10T22:14:19.734Z,15.30
2018-07-10T22:16:49.203Z,15.30
2018-07-10T22:19:26.146Z,15.30
2018-07-10T22:21:56.318Z,15.30
2018-07-10T22:24:27.605Z,15.20
2018-07-10T22:26:59.156Z,15.20
2018-07-10T22:29:33.861Z,15.10
2018-07-10T22:32:07.379Z,15.10
2018-07-10T22:34:36.815Z,15.00
2018-07-10T22:37:06.243Z,15.00
2018-07-10T22:39:35.604Z,14.80
2018-07-10T22:42:05.015Z,14.90
2018-07-10T22:47:06.374Z,15.00
2018-07-10T22:49:36.455Z,15.10
2018-07-10T22:52:06.011Z,15.10
2018-07-10T22:54:36.788Z,15.20
2018-07-10T22:57:08.999Z,15.30
2018-07-10T22:59:38.467Z,15.40
2018-07-10T23:02:08.631Z,15.40
2018-07-10T23:04:38.411Z,15.40
2018-07-10T23:07:08.397Z,15.50
2018-07-10T23:09:37.982Z,15.40
2018-07-10T23:12:07.458Z,15.40
2018-07-10T23:14:36.851Z,15.30
2018-07-10T23:17:06.292Z,15.30
2018-07-10T23:19:35.850Z,15.30
2018-07-10T23:22:05.271Z,15.20
2018-07-10T23:24:34.639Z,15.10
2018-07-10T23:27:04.033Z,15.10
2018-07-10T23:29:36.633Z,15.00
2018-07-10T23:32:07.715Z,15.00
2018-07-10T23:34:37.091Z,15.10
2018-07-10T23:37:13.231Z,15.20
2018-07-10T23:39:48.207Z,15.10
2018-07-10T23:42:24.359Z,15.20
2018-07-10T23:44:53.762Z,15.20
2018-07-10T23:47:29.047Z,15.20
2018-07-10T23:50:07.701Z,15.20
2018-07-10T23:53:47.039Z,15.10
2018-07-10T23:56:17.129Z,15.00
2018-07-10T23:58:47.166Z,15.00
